This is the latest recevied weather packets stored in our database for station/object OE8NDR-11. If no packets are shown the sender has not sent any weather packets the latest 1 day(s).
| Time | Temp. | Humidity | Pressure | Rain* | Wind** | Luminosity | Snow |
|---|---|---|---|---|---|---|---|
| 1778062989 | 21.11° C | 60% | 1017 hPa | 0 mm | - | - | - |
| 1778062689 | 21.11° C | 60% | 1017.1 hPa | 0 mm | - | - | - |
| 1778062389 | 21.11° C | 61% | 1017.1 hPa | 0 mm | - | - | - |
| 1778062089 | 21.11° C | 60% | 1017 hPa | 0 mm | - | - | - |
| 1778061789 | 20.56° C | 59% | 1017.1 hPa | 0 mm | - | - | - |
| 1778060889 | 21.11° C | 61% | 1017.1 hPa | 0 mm | - | - | - |
| 1778060289 | 21.67° C | 56% | 1017.2 hPa | 0 mm | - | - | - |
| 1778056989 | 20.56° C | 56% | 1017.3 hPa | 0 mm | - | - | - |
| 1778056089 | 20.56° C | 57% | 1017.2 hPa | 0 mm | - | - | - |
| 1778054889 | 19.44° C | 59% | 1016.9 hPa | 0 mm | - | - | - |
| 1778054289 | 19.44° C | 59% | 1017 hPa | 0 mm | - | - | - |
| 1778052189 | 18.89° C | 62% | 1016.8 hPa | 0 mm | - | - | - |
| 1778051589 | 18.33° C | 63% | 1016.8 hPa | 0 mm | - | - | - |
| 1778050389 | 17.78° C | 64% | 1017 hPa | 0 mm | - | - | - |
| 1778045290 | 14.44° C | 75% | 1017 hPa | 0 mm | - | - | - |
| 1778044690 | 13.89° C | 75% | 1017 hPa | 0 mm | - | - | - |
| 1778043490 | 13.33° C | 76% | 1017 hPa | 0 mm | - | - | - |
| 1778041990 | 12.78° C | 79% | 1017 hPa | 0 mm | - | - | - |
| 1778041390 | 12.78° C | 78% | 1017 hPa | 0 mm | - | - | - |
| 1778041090 | 12.22° C | 78% | 1017 hPa | 0 mm | - | - | - |
| 1778040790 | 12.22° C | 79% | 1017 hPa | 0 mm | - | - | - |
| 1778040490 | 12.22° C | 79% | 1017 hPa | 0 mm | - | - | - |
| 1778040190 | 12.22° C | 80% | 1017 hPa | 0 mm | - | - | - |
| 1778039890 | 11.67° C | 80% | 1016.9 hPa | 0 mm | - | - | - |
| 1778039590 | 11.67° C | 80% | 1016.9 hPa | 0 mm | - | - | - |
* Rain latest hour (hover to see other rain measurements)
** Current wind speed in m/s (hover to see current wind gust speed)